Time;durP1;ratioP1;P1;durP2;ratioP2;P2;SDS_P1;SDS_P2;PMS_P1;PMS_P2;Temp;Humidity;BMP_temperature;BMP_pressure;BME280_temperature;BME280_humidity;BME280_pressure;Samples;Min_cycle;Max_cycle;Signal;HPM_P1;HPM_P2
2023/07/01 00:01:40;;;;;;;7.43;4.35;;;;;;;14.20;100.00;92081.94;4960792;28;20342;-78
2023/07/01 00:04:06;;;;;;;6.93;4.45;;;;;;;14.21;100.00;92082.72;4943025;29;20067;-78
2023/07/01 00:06:32;;;;;;;7.35;4.20;;;;;;;14.20;100.00;92084.59;4946099;29;20038;-77
2023/07/01 00:08:57;;;;;;;6.28;4.20;;;;;;;14.12;100.00;92073.03;4941233;29;20058;-77
2023/07/01 00:11:23;;;;;;;8.38;3.97;;;;;;;14.16;100.00;92079.19;4926713;29;20514;-77
2023/07/01 00:13:49;;;;;;;5.82;3.78;;;;;;;14.13;100.00;92073.78;4940913;29;20083;-78
2023/07/01 00:16:14;;;;;;;6.35;3.75;;;;;;;14.13;100.00;92076.41;4944421;29;20023;-78
2023/07/01 00:18:41;;;;;;;6.75;3.67;;;;;;;14.13;100.00;92073.78;4936800;29;20051;-78
2023/07/01 00:21:07;;;;;;;7.20;3.90;;;;;;;14.15;100.00;92068.97;4932963;29;20050;-78
2023/07/01 00:23:33;;;;;;;6.80;3.83;;;;;;;14.14;100.00;92062.94;4942272;29;20111;-78
2023/07/01 00:25:59;;;;;;;6.53;3.42;;;;;;;14.13;100.00;92058.75;4939606;29;20508;-78
2023/07/01 00:28:24;;;;;;;8.55;3.90;;;;;;;14.13;100.00;92055.34;4940295;29;20075;-78
2023/07/01 00:30:51;;;;;;;5.72;3.70;;;;;;;14.14;100.00;92056.91;4941251;29;20563;-78
2023/07/01 00:33:17;;;;;;;6.28;3.67;;;;;;;14.13;100.00;92052.72;4941910;29;20135;-78
2023/07/01 00:35:42;;;;;;;5.57;3.50;;;;;;;14.14;100.00;92051.66;4944592;29;20118;-77
2023/07/01 00:38:08;;;;;;;6.85;3.70;;;;;;;14.13;100.00;92050.09;4943955;29;20524;-77
2023/07/01 00:40:34;;;;;;;7.70;3.33;;;;;;;14.12;100.00;92054.59;4942967;29;20024;-77
2023/07/01 00:42:59;;;;;;;6.35;3.47;;;;;;;14.09;100.00;92047.31;4941728;29;20039;-78
2023/07/01 00:45:25;;;;;;;5.65;3.35;;;;;;;14.10;100.00;92046.25;4940056;29;20047;-78
2023/07/01 00:47:51;;;;;;;5.93;3.03;;;;;;;14.08;100.00;92042.38;4940322;29;20134;-78
2023/07/01 00:50:17;;;;;;;5.30;3.50;;;;;;;14.08;100.00;92045.03;4940477;29;20094;-78
2023/07/01 00:52:43;;;;;;;5.65;3.38;;;;;;;14.09;100.00;92043.91;4930597;29;20433;-78
2023/07/01 00:55:10;;;;;;;5.20;3.03;;;;;;;14.09;100.00;92038.66;4956827;28;20497;-78
2023/07/01 00:57:36;;;;;;;5.28;3.25;;;;;;;14.07;100.00;92039.00;4938568;29;20040;-78
2023/07/01 01:00:08;;;;;;;8.13;3.42;;;;;;;14.02;100.00;92044.41;4943545;29;20047;-78
2023/07/01 01:03:06;;;;;;;5.50;3.40;;;;;;;14.03;100.00;92045.22;4944182;29;20047;-78
2023/07/01 01:05:39;;;;;;;6.90;3.20;;;;;;;14.01;100.00;92037.63;4948659;28;20506;-78
2023/07/01 01:08:10;;;;;;;6.00;3.50;;;;;;;14.00;100.00;92036.06;4928113;29;20100;-78
2023/07/01 01:10:40;;;;;;;5.90;3.55;;;;;;;14.02;100.00;92033.13;4939786;29;20039;-78
2023/07/01 01:13:07;;;;;;;6.68;3.50;;;;;;;14.01;100.00;92027.09;4942933;29;20470;-78
2023/07/01 01:15:33;;;;;;;5.68;3.35;;;;;;;14.02;100.00;92028.63;4939639;29;20103;-78
2023/07/01 01:18:05;;;;;;;8.35;3.50;;;;;;;14.04;100.00;92028.31;4944177;29;20060;-78
2023/07/01 01:20:34;;;;;;;5.28;3.33;;;;;;;14.01;100.00;92023.69;4943277;29;20089;-78
2023/07/01 01:23:07;;;;;;;5.45;3.10;;;;;;;14.00;100.00;92015.00;4941618;29;20055;-77
2023/07/01 01:26:06;;;;;;;5.10;2.95;;;;;;;14.02;100.00;92027.88;4941864;29;20066;-78
2023/07/01 01:28:34;;;;;;;6.72;3.42;;;;;;;13.99;100.00;92024.00;4942870;29;20035;-78
2023/07/01 01:31:00;;;;;;;6.05;3.20;;;;;;;14.03;100.00;92018.91;4940098;29;20048;-78
2023/07/01 01:33:26;;;;;;;8.27;3.40;;;;;;;13.97;100.00;92015.66;4937181;29;20036;-78
2023/07/01 01:36:06;;;;;;;5.32;3.30;;;;;;;13.97;100.00;92010.41;4943827;29;20046;-78
2023/07/01 01:38:33;;;;;;;6.25;3.22;;;;;;;13.95;100.00;92005.44;4935342;29;20408;-78
2023/07/01 01:41:02;;;;;;;6.30;3.45;;;;;;;13.97;100.00;92007.00;4944633;29;20031;-78
2023/07/01 01:43:30;;;;;;;6.07;3.50;;;;;;;13.97;100.00;92009.63;4942676;29;20067;-77
2023/07/01 01:45:57;;;;;;;5.82;3.70;;;;;;;13.98;100.00;92011.16;4941101;29;20064;-78
2023/07/01 01:48:23;;;;;;;6.57;3.80;;;;;;;13.99;100.00;92010.09;4943025;29;20038;-79
2023/07/01 01:50:50;;;;;;;7.88;3.83;;;;;;;13.99;100.00;92007.47;4940989;29;20045;-78
2023/07/01 01:53:18;;;;;;;6.05;3.28;;;;;;;13.97;100.00;91999.09;4943917;29;20039;-78
2023/07/01 01:55:44;;;;;;;9.90;3.90;;;;;;;13.93;100.00;92005.00;4943007;29;20031;-77
2023/07/01 01:58:10;;;;;;;6.57;3.50;;;;;;;13.89;100.00;91993.59;4941277;29;20139;-78
2023/07/01 02:00:36;;;;;;;5.32;3.35;;;;;;;13.85;100.00;91995.28;4939517;29;20107;-78
2023/07/01 02:03:02;;;;;;;6.22;3.50;;;;;;;13.82;100.00;91990.66;4941274;29;20055;-78
2023/07/01 02:05:28;;;;;;;8.85;4.10;;;;;;;13.80;100.00;91987.56;4940624;29;20046;-78
2023/07/01 02:07:55;;;;;;;8.23;4.05;;;;;;;13.79;100.00;91986.03;4942334;29;20476;-78
2023/07/01 02:10:20;;;;;;;7.55;4.60;;;;;;;13.78;100.00;91981.09;4941780;29;20071;-78
2023/07/01 02:12:47;;;;;;;7.38;4.35;;;;;;;13.76;100.00;91984.06;4942956;29;20051;-78
2023/07/01 02:15:12;;;;;;;6.47;4.22;;;;;;;13.71;100.00;91981.59;4926217;29;20043;-78
2023/07/01 02:17:38;;;;;;;6.25;3.83;;;;;;;13.72;100.00;91983.13;4941935;29;20103;-78
2023/07/01 02:20:05;;;;;;;8.00;4.40;;;;;;;13.72;100.00;91981.28;4942225;29;20051;-78
2023/07/01 02:22:31;;;;;;;6.28;4.32;;;;;;;13.69;100.00;91979.28;4940015;29;20046;-78
2023/07/01 02:24:56;;;;;;;9.63;4.32;;;;;;;13.68;100.00;91972.47;4932630;29;20100;-78
2023/07/01 02:27:22;;;;;;;8.98;4.82;;;;;;;13.67;100.00;91962.28;4892579;29;20064;-78
2023/07/01 02:29:49;;;;;;;8.88;4.65;;;;;;;13.64;100.00;91968.16;4940167;29;20039;-78
2023/07/01 02:32:15;;;;;;;7.18;4.65;;;;;;;13.66;100.00;91968.63;4942196;29;20090;-78
2023/07/01 02:34:40;;;;;;;7.97;4.53;;;;;;;13.68;100.00;91971.69;4941522;29;20028;-78
2023/07/01 02:37:06;;;;;;;7.60;4.90;;;;;;;13.69;100.00;91967.97;4940931;29;20054;-78
2023/07/01 02:39:32;;;;;;;7.07;4.82;;;;;;;13.70;100.00;91972.16;4942605;29;20043;-78
2023/07/01 02:41:57;;;;;;;7.13;4.80;;;;;;;13.71;100.00;91971.06;4941812;29;20066;-78
2023/07/01 02:44:23;;;;;;;7.30;4.70;;;;;;;13.73;100.00;91968.88;4938623;29;20103;-78
2023/07/01 02:46:48;;;;;;;10.13;5.00;;;;;;;13.71;100.00;91963.16;4952679;28;20039;-78
2023/07/01 02:49:14;;;;;;;9.23;5.75;;;;;;;13.74;100.00;91970.44;4938791;29;20052;-76
2023/07/01 02:51:41;;;;;;;8.23;5.90;;;;;;;13.76;100.00;91965.63;4928468;29;20044;-77
2023/07/01 02:54:07;;;;;;;7.45;4.88;;;;;;;13.77;100.00;91967.16;4942582;29;20039;-78
2023/07/01 02:56:33;;;;;;;9.45;5.22;;;;;;;13.77;100.00;91961.13;4943482;29;20039;-78
2023/07/01 02:58:59;;;;;;;7.88;5.35;;;;;;;13.76;100.00;91968.28;4945997;29;20040;-78
2023/07/01 03:01:24;;;;;;;9.68;5.40;;;;;;;13.75;100.00;91966.72;4930653;29;20036;-78
2023/07/01 03:03:51;;;;;;;6.97;4.45;;;;;;;13.77;100.00;91975.06;4942868;29;20383;-77
2023/07/01 03:06:17;;;;;;;7.78;5.13;;;;;;;13.76;100.00;91968.28;4951801;28;20578;-78
2023/07/01 03:08:43;;;;;;;9.27;4.72;;;;;;;13.77;100.00;91969.03;4958819;28;20505;-78
2023/07/01 03:11:08;;;;;;;8.52;5.38;;;;;;;13.75;100.00;91961.44;4947209;29;20047;-78
2023/07/01 03:13:37;;;;;;;8.77;4.60;;;;;;;13.75;100.00;91966.72;4943388;29;20031;-79
2023/07/01 03:16:07;;;;;;;7.43;5.00;;;;;;;13.73;100.00;91961.00;4940508;29;20036;-78
2023/07/01 03:18:33;;;;;;;8.88;5.07;;;;;;;13.71;100.00;91958.69;4943112;29;20058;-78
2023/07/01 03:21:00;;;;;;;7.07;4.57;;;;;;;13.70;100.00;91969.53;4943516;29;20035;-78
2023/07/01 03:23:27;;;;;;;7.82;4.60;;;;;;;13.71;100.00;91960.53;4943260;29;20378;-78
2023/07/01 03:25:53;;;;;;;7.55;4.85;;;;;;;13.68;100.00;91961.19;4959654;28;20046;-78
2023/07/01 03:28:20;;;;;;;7.38;4.85;;;;;;;13.66;100.00;91966.00;4941564;29;20047;-78
2023/07/01 03:30:46;;;;;;;9.50;4.72;;;;;;;13.64;100.00;91965.53;4943533;29;20040;-78
2023/07/01 03:33:12;;;;;;;9.10;4.65;;;;;;;13.64;100.00;91965.53;4949213;29;20040;-78
2023/07/01 03:35:38;;;;;;;6.90;4.03;;;;;;;13.61;100.00;91963.53;4943872;29;20044;-78
2023/07/01 03:38:04;;;;;;;5.97;3.65;;;;;;;13.60;100.00;91956.72;4933491;29;20042;-78
2023/07/01 03:40:31;;;;;;;5.38;3.20;;;;;;;13.57;100.00;91960.75;4943018;29;20032;-77
2023/07/01 03:42:56;;;;;;;4.85;3.38;;;;;;;13.52;100.00;91964.34;4944067;29;20116;-78
2023/07/01 03:45:22;;;;;;;6.28;3.65;;;;;;;13.56;100.00;91967.13;4943443;29;20383;-78
2023/07/01 03:47:48;;;;;;;5.70;3.88;;;;;;;13.53;100.00;91965.91;4943891;29;20031;-77
2023/07/01 03:50:14;;;;;;;7.47;3.90;;;;;;;13.54;100.00;91966.66;4944205;29;20485;-78
2023/07/01 03:52:41;;;;;;;6.22;3.35;;;;;;;13.53;100.00;91970.38;4936392;29;20055;-77
2023/07/01 03:55:11;;;;;;;6.95;3.25;;;;;;;13.53;100.00;91971.16;4951631;28;20035;-77
2023/07/01 03:57:37;;;;;;;6.47;3.45;;;;;;;13.54;100.00;91966.66;4946513;29;20572;-78
2023/07/01 04:00:18;;;;;;;6.53;3.35;;;;;;;13.52;100.00;91969.59;4946034;29;20074;-78
2023/07/01 04:02:49;;;;;;;5.63;3.42;;;;;;;13.56;100.00;91975.00;4958943;28;20047;-78
2023/07/01 04:05:15;;;;;;;7.47;3.63;;;;;;;13.59;100.00;91976.22;4946282;29;20047;-78
2023/07/01 04:07:43;;;;;;;5.97;3.60;;;;;;;13.62;100.00;91973.75;4944982;29;20549;-77
2023/07/01 04:10:10;;;;;;;6.15;3.75;;;;;;;13.65;100.00;91972.34;4945691;29;20345;-78
2023/07/01 04:12:37;;;;;;;6.47;4.22;;;;;;;13.71;100.00;91971.84;4944160;29;20042;-78
2023/07/01 04:15:09;;;;;;;9.88;4.78;;;;;;;13.77;100.00;91974.28;4945323;29;20032;-78
2023/07/01 04:17:44;;;;;;;7.32;4.60;;;;;;;13.80;100.00;91979.69;4960796;28;20066;-78
2023/07/01 04:20:11;;;;;;;7.45;4.78;;;;;;;13.85;100.00;91974.25;4946827;29;20048;-78
2023/07/01 04:22:37;;;;;;;7.03;4.68;;;;;;;13.92;100.00;91976.38;4944256;29;20585;-78
2023/07/01 04:25:04;;;;;;;8.05;4.53;;;;;;;13.95;100.00;91971.25;4943968;29;20043;-78
2023/07/01 04:27:30;;;;;;;7.13;4.82;;;;;;;14.00;100.00;91975.53;4961788;29;20039;-78
2023/07/01 04:29:56;;;;;;;7.07;4.57;;;;;;;14.08;100.00;91980.00;4961647;29;20517;-78
2023/07/01 04:32:21;;;;;;;7.70;5.10;;;;;;;14.13;100.00;91981.66;4941862;29;20136;-78
2023/07/01 04:34:48;;;;;;;7.30;4.80;;;;;;;14.16;100.00;91975.75;4943380;29;20059;-78
2023/07/01 04:37:13;;;;;;;8.75;5.13;;;;;;;14.21;100.00;91983.47;4942009;29;20103;-78
2023/07/01 04:39:39;;;;;;;8.43;4.80;;;;;;;14.27;100.00;91970.88;4926737;29;20438;-79
2023/07/01 04:42:05;;;;;;;6.25;3.60;;;;;;;14.36;100.00;91972.38;4927321;29;20036;-78
2023/07/01 04:44:32;;;;;;;4.80;3.30;;;;;;;14.41;100.00;91976.69;4926780;29;20048;-78
2023/07/01 04:46:58;;;;;;;6.75;3.33;;;;;;;14.45;100.00;91984.69;4908375;29;20032;-78
2023/07/01 04:49:23;;;;;;;7.47;4.18;;;;;;;14.50;100.00;91989.75;4945779;29;20040;-79
2023/07/01 04:51:49;;;;;;;7.90;5.07;;;;;;;14.53;100.00;91994.41;4946515;29;20043;-78
2023/07/01 04:54:15;;;;;;;10.10;5.75;;;;;;;14.58;100.00;91992.34;4930490;29;20036;-78
2023/07/01 04:56:41;;;;;;;12.73;4.72;;;;;;;14.65;100.00;91991.84;4936586;29;20020;-78
2023/07/01 04:59:06;;;;;;;6.07;3.88;;;;;;;14.68;100.00;91991.22;4946118;29;20078;-78
2023/07/01 05:01:32;;;;;;;5.93;3.67;;;;;;;14.73;100.00;91995.50;4914142;29;20046;-78
2023/07/01 05:03:58;;;;;;;7.32;4.35;;;;;;;14.80;100.00;91997.63;4945555;29;20031;-78
2023/07/01 05:06:24;;;;;;;6.20;3.60;;;;;;;14.86;100.00;91996.31;4940168;29;20051;-78
2023/07/01 05:08:49;;;;;;;6.05;3.83;;;;;;;14.90;100.00;91997.22;4946322;29;20039;-78
2023/07/01 05:11:15;;;;;;;5.90;3.97;;;;;;;14.95;100.00;91999.63;4945253;29;20020;-78
2023/07/01 05:13:41;;;;;;;7.38;3.72;;;;;;;14.99;100.00;92001.31;4944994;29;20445;-78
2023/07/01 05:16:06;;;;;;;6.40;3.42;;;;;;;15.11;100.00;91997.19;4943126;29;20055;-77
2023/07/01 05:18:32;;;;;;;6.25;3.85;;;;;;;15.09;100.00;91999.38;4955252;28;20075;-79
2023/07/01 05:20:57;;;;;;;7.60;4.60;;;;;;;15.09;100.00;92000.13;4964211;28;20039;-77
2023/07/01 05:23:23;;;;;;;10.90;5.13;;;;;;;15.07;100.00;92002.31;4966075;28;20116;-78
2023/07/01 05:25:49;;;;;;;10.30;4.78;;;;;;;15.06;100.00;92006.03;4975910;28;20046;-79
2023/07/01 05:28:15;;;;;;;6.88;4.18;;;;;;;15.26;100.00;91996.53;4961225;29;20103;-78
2023/07/01 05:30:41;;;;;;;7.22;4.10;;;;;;;15.23;100.00;92004.34;4963202;28;20038;-78
2023/07/01 05:33:06;;;;;;;6.05;4.15;;;;;;;15.27;100.00;92006.00;4963089;28;20401;-78
2023/07/01 05:35:32;;;;;;;6.15;3.80;;;;;;;15.35;100.00;92007.00;4963965;28;20099;-78
2023/07/01 05:37:58;;;;;;;6.45;3.65;;;;;;;15.40;100.00;92001.50;4962595;29;20031;-78
2023/07/01 05:40:23;;;;;;;5.88;3.55;;;;;;;15.42;100.00;92001.94;4961955;28;20046;-78
2023/07/01 05:42:49;;;;;;;5.57;3.35;;;;;;;15.49;100.00;92004.06;4950472;29;20048;-77
2023/07/01 05:45:15;;;;;;;5.82;3.50;;;;;;;15.49;100.00;92007.50;4954531;28;20039;-77
2023/07/01 05:47:40;;;;;;;5.45;3.25;;;;;;;15.49;100.00;92002.22;4955266;29;20062;-77
2023/07/01 05:50:06;;;;;;;115.07;7.18;;;;;;;15.43;100.00;91995.59;4954874;29;20043;-76
2023/07/01 05:52:32;;;;;;;225.63;8.73;;;;;;;15.31;100.00;91998.19;4954383;29;20436;-77
2023/07/01 05:54:57;;;;;;;7.45;5.60;;;;;;;15.28;100.00;92001.50;4953930;28;20497;-77
2023/07/01 05:57:23;;;;;;;10.55;6.25;;;;;;;15.24;100.00;92003.25;4954017;29;20050;-77
2023/07/01 05:59:49;;;;;;;100.88;9.23;;;;;;;15.18;100.00;92000.81;4952539;29;20034;-77
2023/07/01 06:02:15;;;;;;;152.25;10.25;;;;;;;15.06;100.00;91994.72;4953894;29;20039;-77
2023/07/01 06:04:40;;;;;;;59.33;7.22;;;;;;;15.02;100.00;91994.63;4954071;28;20054;-77
2023/07/01 06:07:06;;;;;;;13.48;6.30;;;;;;;15.05;100.00;91993.97;4954195;29;20167;-77
2023/07/01 06:09:32;;;;;;;10.27;6.55;;;;;;;15.09;100.00;91989.59;4952473;29;20023;-77
2023/07/01 06:11:57;;;;;;;10.75;5.93;;;;;;;15.20;100.00;91995.22;4946362;28;20054;-77
2023/07/01 06:14:23;;;;;;;11.95;7.03;;;;;;;16.17;100.00;91998.28;4947720;29;20043;-78
2023/07/01 06:16:50;;;;;;;8.10;6.07;;;;;;;17.30;100.00;91993.88;4945197;28;20804;-77
2023/07/01 06:19:15;;;;;;;9.88;5.78;;;;;;;18.23;100.00;91995.31;4958175;28;20043;-78
2023/07/01 06:21:41;;;;;;;6.38;4.45;;;;;;;19.11;100.00;92000.16;4958230;29;20082;-78
2023/07/01 06:24:07;;;;;;;6.03;3.70;;;;;;;19.92;100.00;92004.63;4955188;29;20075;-78
2023/07/01 06:26:32;;;;;;;6.85;3.15;;;;;;;19.77;100.00;92006.31;4949800;29;20032;-79
2023/07/01 06:28:58;;;;;;;6.03;2.70;;;;;;;19.35;100.00;92015.03;4963181;29;20110;-79
2023/07/01 06:31:24;;;;;;;5.32;3.17;;;;;;;19.16;100.00;92010.50;4946919;28;20512;-78
2023/07/01 06:33:49;;;;;;;8.70;4.80;;;;;;;19.30;100.00;92013.44;4959345;29;20036;-77
2023/07/01 06:36:17;;;;;;;8.70;5.28;;;;;;;19.11;100.00;92016.84;4957275;28;20035;-83
2023/07/01 06:38:43;;;;;;;11.90;5.50;;;;;;;18.54;100.00;92006.97;4953022;28;20071;-80
2023/07/01 06:41:09;;;;;;;7.93;4.93;;;;;;;18.07;100.00;92008.59;4948087;29;20031;-78
2023/07/01 06:43:41;;;;;;;9.20;4.70;;;;;;;17.86;100.00;92008.88;4953789;28;20428;-80
2023/07/01 06:46:07;;;;;;;;;;;;;;;17.87;100.00;92015.69;4952280;28;20036;-78
2023/07/01 06:48:33;;;;;;;8.15;4.90;;;;;;;17.81;100.00;92014.38;4949436;29;19918;-79
2023/07/01 06:50:58;;;;;;;10.20;5.32;;;;;;;17.78;100.00;92012.44;4968504;28;20031;-80
2023/07/01 06:53:25;;;;;;;7.05;4.57;;;;;;;17.75;100.00;92013.88;4949839;28;20094;-78
2023/07/01 06:55:50;;;;;;;6.60;3.75;;;;;;;17.43;100.00;92011.22;4952395;28;20420;-78
2023/07/01 06:58:16;;;;;;;7.70;4.20;;;;;;;17.11;100.00;92012.25;4949719;29;20031;-77
2023/07/01 07:00:43;;;;;;;7.13;3.65;;;;;;;17.06;100.00;92013.25;4945961;29;20039;-77
2023/07/01 07:03:09;;;;;;;5.90;3.58;;;;;;;17.06;100.00;92010.63;4962894;28;20493;-77
2023/07/01 07:05:34;;;;;;;10.75;3.92;;;;;;;16.91;100.00;92019.25;4944841;28;20047;-77
2023/07/01 07:08:00;;;;;;;7.28;3.50;;;;;;;16.84;100.00;92015.34;4943767;28;20027;-77
2023/07/01 07:10:26;;;;;;;6.55;3.17;;;;;;;16.80;100.00;92017.09;4944944;29;20035;-77
2023/07/01 07:12:52;;;;;;;255.57;11.23;;;;;;;16.88;100.00;92019.94;4947556;29;20122;-77
2023/07/01 07:15:23;;;;;;;64.07;9.57;;;;;;;16.91;100.00;92024.56;4945154;28;20066;-77
2023/07/01 07:17:48;;;;;;;14.93;8.30;;;;;;;16.77;100.00;92030.94;4947893;28;20098;-78
2023/07/01 07:20:14;;;;;;;11.65;7.38;;;;;;;16.93;100.00;92035.56;4952872;29;20047;-77
2023/07/01 07:22:40;;;;;;;12.43;7.20;;;;;;;16.97;100.00;92031.16;4955697;28;20035;-77
2023/07/01 07:25:06;;;;;;;14.60;8.50;;;;;;;17.09;100.00;92031.13;4950955;28;20046;-77
2023/07/01 07:27:31;;;;;;;13.75;8.18;;;;;;;17.07;100.00;92033.31;4955460;29;20130;-77
2023/07/01 07:29:57;;;;;;;14.45;8.40;;;;;;;17.20;100.00;92028.72;4955146;28;20031;-77
2023/07/01 07:32:23;;;;;;;12.57;7.57;;;;;;;17.51;100.00;92024.63;4949382;28;20036;-77
2023/07/01 07:34:49;;;;;;;14.10;8.40;;;;;;;17.54;100.00;92032.66;4950323;28;20049;-78
2023/07/01 07:37:14;;;;;;;16.33;8.25;;;;;;;17.55;100.00;92030.78;4954807;28;20424;-78
2023/07/01 07:39:40;;;;;;;15.75;8.77;;;;;;;17.58;100.00;92036.13;4955895;29;20489;-78
2023/07/01 07:42:06;;;;;;;12.48;7.53;;;;;;;17.50;100.00;92038.97;4955737;28;20047;-78
2023/07/01 07:44:31;;;;;;;12.80;7.40;;;;;;;17.19;100.00;92041.19;4956191;28;20119;-77
2023/07/01 07:46:57;;;;;;;14.85;6.90;;;;;;;17.37;100.00;92035.59;4953851;28;20124;-77
2023/07/01 07:49:23;;;;;;;12.77;6.80;;;;;;;17.17;100.00;92038.13;4955515;28;20050;-77
2023/07/01 07:51:48;;;;;;;13.07;6.05;;;;;;;17.20;100.00;92037.47;4953743;28;20031;-78
2023/07/01 07:54:14;;;;;;;10.18;5.15;;;;;;;17.40;100.00;92029.63;4952573;28;20047;-77
2023/07/01 07:56:39;;;;;;;9.68;5.88;;;;;;;17.41;100.00;92031.94;4955463;28;20118;-77
2023/07/01 07:59:07;;;;;;;11.18;6.03;;;;;;;17.34;100.00;92030.97;4955201;29;20043;-77
2023/07/01 08:01:33;;;;;;;12.20;5.70;;;;;;;17.52;100.00;92029.59;4953984;28;20042;-78
2023/07/01 08:03:58;;;;;;;10.48;5.88;;;;;;;17.49;100.00;92032.88;4952789;28;20035;-78
2023/07/01 08:06:24;;;;;;;9.57;4.90;;;;;;;17.63;100.00;92037.75;4955852;28;20066;-80
2023/07/01 08:08:49;;;;;;;11.90;5.20;;;;;;;17.69;100.00;92033.75;4964256;28;20071;-80
2023/07/01 08:11:15;;;;;;;8.98;4.90;;;;;;;17.73;100.00;92031.22;4965274;29;20039;-83
2023/07/01 08:13:40;;;;;;;9.98;4.95;;;;;;;17.53;100.00;92033.75;4947182;29;20035;-80
2023/07/01 08:16:06;;;;;;;14.25;5.50;;;;;;;17.52;100.00;92032.22;4963231;28;20035;-82
2023/07/01 08:18:35;;;;;;;7.88;4.10;;;;;;;17.69;100.00;92026.59;4970110;28;20084;-80
2023/07/01 08:21:01;;;;;;;8.18;4.50;;;;;;;17.90;100.00;92028.28;4976353;28;20126;-81
2023/07/01 08:23:27;;;;;;;10.35;4.85;;;;;;;17.99;100.00;92028.84;4961171;28;20039;-81
2023/07/01 08:25:53;;;;;;;6.47;3.97;;;;;;;18.08;100.00;92026.81;4958149;28;20031;-80
2023/07/01 08:28:19;;;;;;;9.15;4.07;;;;;;;18.03;100.00;92020.97;4961231;28;20098;-81
2023/07/01 08:30:44;;;;;;;6.82;4.20;;;;;;;17.96;100.00;92029.53;4963548;28;20122;-81
2023/07/01 08:33:10;;;;;;;7.57;4.43;;;;;;;17.92;100.00;92028.66;4960307;29;20521;-78
2023/07/01 08:35:36;;;;;;;11.15;4.80;;;;;;;18.02;100.00;92027.41;4957633;28;20031;-77
2023/07/01 08:38:01;;;;;;;7.20;4.68;;;;;;;18.08;100.00;92026.00;4956928;28;20035;-79
2023/07/01 08:40:27;;;;;;;8.23;4.00;;;;;;;18.57;100.00;92024.81;4957053;28;20050;-75
2023/07/01 08:43:03;;;;;;;9.13;3.85;;;;;;;19.03;100.00;92030.34;4955351;29;20493;-78
2023/07/01 08:45:30;;;;;;;6.25;3.38;;;;;;;18.96;100.00;92025.66;4957557;28;20039;-78
2023/07/01 08:48:00;;;;;;;6.82;4.07;;;;;;;18.88;100.00;92019.44;4955974;28;20111;-77
2023/07/01 08:50:37;;;;;;;6.30;3.38;;;;;;;18.72;100.00;92019.47;4957200;28;20378;-78
2023/07/01 08:53:06;;;;;;;6.47;3.58;;;;;;;18.67;100.00;92021.63;4957692;29;20409;-77
2023/07/01 08:55:33;;;;;;;8.88;3.88;;;;;;;18.39;100.00;92019.13;4957788;28;20457;-78
2023/07/01 08:58:00;;;;;;;7.40;3.75;;;;;;;18.59;100.00;92012.00;4973116;28;20294;-78
2023/07/01 09:00:26;;;;;;;8.13;3.80;;;;;;;18.90;100.00;92024.41;4926205;29;20054;-78
2023/07/01 09:02:52;;;;;;;6.72;3.75;;;;;;;19.14;100.00;92031.31;4959518;29;20596;-78
2023/07/01 09:05:18;;;;;;;7.53;3.85;;;;;;;19.12;100.00;92023.72;4958663;28;20035;-78
2023/07/01 09:07:43;;;;;;;5.95;3.13;;;;;;;19.06;100.00;92030.41;4958498;28;20123;-79
2023/07/01 09:10:13;;;;;;;6.43;3.30;;;;;;;19.45;100.00;92026.94;4958561;28;20034;-77
2023/07/01 09:12:39;;;;;;;5.75;3.22;;;;;;;19.12;100.00;92030.91;4955841;28;20074;-78
2023/07/01 09:15:07;;;;;;;8.35;3.08;;;;;;;18.96;100.00;92027.53;4956073;28;20039;-78
2023/07/01 09:17:37;;;;;;;6.20;3.53;;;;;;;18.83;100.00;92026.91;4957192;28;20044;-77
2023/07/01 09:20:08;;;;;;;11.32;4.13;;;;;;;19.06;100.00;92019.78;4957436;29;20130;-78
2023/07/01 09:22:35;;;;;;;7.30;3.80;;;;;;;19.46;100.00;92023.19;4972895;28;20043;-78
2023/07/01 09:25:02;;;;;;;6.88;3.90;;;;;;;19.55;100.00;92021.84;4957491;28;20099;-78
2023/07/01 09:27:59;;;;;;;4.95;2.78;;;;;;;19.73;100.00;92024.81;4956975;29;20075;-78
2023/07/01 09:30:27;;;;;;;5.38;3.28;;;;;;;19.92;100.00;92025.88;4929121;28;20126;-78
2023/07/01 09:33:13;;;;;;;7.55;3.65;;;;;;;20.06;100.00;92020.81;4955973;29;20043;-78
2023/07/01 09:35:43;;;;;;;6.43;3.40;;;;;;;20.28;100.00;92018.47;4971076;28;20353;-77
2023/07/01 09:38:09;;;;;;;6.53;3.25;;;;;;;20.32;100.00;92021.94;4956517;28;20356;-77
2023/07/01 09:40:35;;;;;;;6.65;3.53;;;;;;;20.28;100.00;92021.13;4957346;28;20050;-78
2023/07/01 09:43:01;;;;;;;9.18;3.80;;;;;;;20.26;100.00;92016.16;4971705;28;20082;-78
2023/07/01 09:45:27;;;;;;;6.53;3.30;;;;;;;20.42;100.00;92010.69;4956308;28;20532;-78
2023/07/01 09:47:53;;;;;;;6.03;3.45;;;;;;;20.27;100.00;92022.25;4951077;29;20035;-78
2023/07/01 09:50:29;;;;;;;6.35;3.40;;;;;;;20.34;100.00;92019.69;4955317;29;20043;-77
2023/07/01 09:52:56;;;;;;;9.40;3.70;;;;;;;20.03;100.00;92018.84;4954140;29;20046;-77
2023/07/01 09:55:23;;;;;;;8.57;3.95;;;;;;;20.07;100.00;92005.63;4954455;28;20126;-77
2023/07/01 09:57:50;;;;;;;6.82;3.50;;;;;;;20.33;100.00;92018.16;4964821;28;20047;-78
2023/07/01 10:00:16;;;;;;;7.82;3.83;;;;;;;20.45;100.00;92004.66;4948959;29;20046;-78
2023/07/01 10:02:47;;;;;;;6.53;3.65;;;;;;;20.44;100.00;92005.03;4952844;28;20031;-77
2023/07/01 10:05:14;;;;;;;6.57;3.45;;;;;;;20.43;100.00;92004.25;4946962;28;20050;-78
2023/07/01 10:07:40;;;;;;;9.52;3.10;;;;;;;20.44;100.00;92002.34;4953127;28;20114;-78
2023/07/01 10:10:15;;;;;;;9.15;3.60;;;;;;;20.70;100.00;92009.59;4955977;28;20039;-78
2023/07/01 10:12:43;;;;;;;7.93;3.50;;;;;;;20.78;100.00;92001.34;4968188;28;20047;-77
2023/07/01 10:15:11;;;;;;;6.63;3.58;;;;;;;20.76;100.00;92005.47;4952580;28;20043;-78
2023/07/01 10:17:45;;;;;;;6.18;3.15;;;;;;;20.90;100.00;92002.25;4954607;28;20102;-78
2023/07/01 10:20:27;;;;;;;6.55;2.97;;;;;;;20.97;100.00;92004.97;4953532;28;20042;-78
2023/07/01 10:22:57;;;;;;;7.40;3.33;;;;;;;21.16;100.00;92009.38;4951435;29;20090;-77
2023/07/01 10:25:43;;;;;;;7.18;3.63;;;;;;;21.23;100.00;92001.47;4966807;28;20043;-77
2023/07/01 10:28:13;;;;;;;7.10;3.38;;;;;;;21.11;100.00;91999.06;4952952;29;20083;-77
2023/07/01 10:30:42;;;;;;;6.18;3.38;;;;;;;21.06;100.00;91994.06;4964605;28;20178;-78
2023/07/01 10:33:39;;;;;;;6.57;3.60;;;;;;;20.96;100.00;91996.25;4950475;29;20396;-78
2023/07/01 10:36:09;;;;;;;5.90;2.95;;;;;;;21.00;100.00;91994.38;4969458;28;20039;-77
2023/07/01 10:38:36;;;;;;;6.78;3.13;;;;;;;21.18;100.00;91997.22;4954878;28;20043;-78
2023/07/01 10:41:02;;;;;;;6.15;3.45;;;;;;;21.19;100.00;91992.69;4951164;28;20715;-77
2023/07/01 10:43:29;;;;;;;5.82;3.30;;;;;;;21.01;100.00;91989.84;4949491;28;20547;-80
2023/07/01 10:46:30;;;;;;;8.35;3.40;;;;;;;21.19;100.00;91985.47;4964941;28;20047;-77
2023/07/01 10:49:02;;;;;;;8.52;3.83;;;;;;;21.29;100.00;91991.25;4944571;29;20054;-77
2023/07/01 10:51:31;;;;;;;6.53;3.45;;;;;;;21.11;100.00;91985.75;4966786;28;20035;-78
2023/07/01 10:54:06;;;;;;;7.63;3.78;;;;;;;21.24;100.00;91984.38;4951123;28;20390;-77
2023/07/01 10:56:33;;;;;;;7.25;3.60;;;;;;;21.30;100.00;91988.25;4946707;29;20382;-78
2023/07/01 10:59:22;;;;;;;6.28;3.38;;;;;;;21.32;100.00;91986.00;4953288;29;20035;-78
2023/07/01 11:01:49;;;;;;;9.05;3.47;;;;;;;21.31;100.00;91986.34;4948073;28;20438;-78
2023/07/01 11:04:16;;;;;;;5.70;3.22;;;;;;;21.40;100.00;91987.59;4952052;28;20027;-77
2023/07/01 11:06:47;;;;;;;9.50;4.15;;;;;;;21.48;100.00;91972.47;4953461;28;20226;-78
2023/07/01 11:09:14;;;;;;;9.43;4.20;;;;;;;21.48;100.00;91975.16;4953599;29;20035;-77
2023/07/01 11:11:40;;;;;;;8.82;4.90;;;;;;;21.46;100.00;91973.97;4956196;28;20022;-77
2023/07/01 11:14:08;;;;;;;8.30;4.22;;;;;;;21.62;100.00;91967.28;4952616;29;20513;-78
2023/07/01 11:16:38;;;;;;;8.30;4.05;;;;;;;21.98;100.00;91972.16;4938987;29;20032;-77
2023/07/01 11:19:09;;;;;;;7.53;4.00;;;;;;;22.41;100.00;91967.88;4924992;29;20497;-77
2023/07/01 11:21:35;;;;;;;7.10;4.17;;;;;;;22.30;100.00;91966.28;4944137;29;20081;-78
2023/07/01 11:24:03;;;;;;;6.75;3.28;;;;;;;22.19;100.00;91966.94;4956757;28;20481;-76
2023/07/01 11:26:34;;;;;;;10.15;4.85;;;;;;;22.23;100.00;91964.34;4939217;29;20048;-78